createdAt,value
2022-10-22T00:00:11.759Z,0.30
2022-10-22T00:02:39.810Z,0.30
2022-10-22T00:05:06.964Z,0.40
2022-10-22T00:07:33.869Z,0.73
2022-10-22T00:10:00.970Z,0.50
2022-10-22T00:12:28.004Z,0.52
2022-10-22T00:14:54.794Z,0.70
2022-10-22T00:17:21.732Z,1.00
2022-10-22T00:19:48.516Z,0.73
2022-10-22T00:22:15.263Z,0.70
2022-10-22T00:24:42.209Z,0.80
2022-10-22T00:27:11.602Z,0.90
2022-10-22T00:29:38.328Z,0.60
2022-10-22T00:32:06.464Z,1.33
2022-10-22T00:34:33.559Z,0.68
2022-10-22T00:37:00.366Z,0.47
2022-10-22T00:39:28.735Z,0.90
2022-10-22T00:41:57.459Z,0.50
2022-10-22T00:45:07.336Z,0.73
2022-10-22T00:47:40.060Z,0.50
2022-10-22T00:50:13.182Z,0.52
2022-10-22T00:52:40.662Z,0.50
2022-10-22T00:55:07.935Z,0.55
2022-10-22T00:57:35.644Z,0.70
2022-10-22T01:00:03.711Z,0.60
2022-10-22T01:02:30.645Z,0.35
2022-10-22T01:04:57.414Z,0.40
2022-10-22T01:07:24.858Z,0.60
2022-10-22T01:10:13.189Z,0.80
2022-10-22T01:12:45.709Z,0.40
2022-10-22T01:15:21.456Z,0.52
2022-10-22T01:18:00.186Z,0.82
2022-10-22T01:20:57.819Z,0.52
2022-10-22T01:23:44.800Z,0.63
2022-10-22T01:26:42.399Z,0.88
2022-10-22T01:29:13.882Z,0.73
2022-10-22T01:31:46.380Z,1.40
2022-10-22T01:34:16.916Z,0.88
2022-10-22T01:36:44.889Z,0.60
2022-10-22T01:39:14.805Z,0.68
2022-10-22T01:41:45.601Z,0.70
2022-10-22T01:44:24.374Z,0.55
2022-10-22T01:46:58.196Z,0.55
2022-10-22T01:49:47.533Z,0.80
2022-10-22T01:52:30.515Z,0.93
2022-10-22T01:55:15.529Z,0.80
2022-10-22T01:57:54.193Z,0.80
2022-10-22T02:00:21.537Z,0.75
2022-10-22T02:02:50.893Z,0.90
2022-10-22T02:05:41.065Z,1.15
2022-10-22T02:08:32.849Z,1.20
2022-10-22T02:11:01.274Z,0.90
2022-10-22T02:13:37.184Z,1.10
2022-10-22T02:16:08.289Z,0.98
2022-10-22T02:18:39.459Z,1.77
2022-10-22T02:23:35.735Z,0.85
2022-10-22T02:26:20.116Z,1.67
2022-10-22T02:29:07.009Z,1.63
2022-10-22T02:31:39.183Z,1.15
2022-10-22T02:34:11.353Z,1.50
2022-10-22T02:36:39.408Z,1.42
2022-10-22T02:39:07.911Z,1.38
2022-10-22T02:41:35.432Z,1.85
2022-10-22T02:44:03.214Z,1.23
2022-10-22T02:46:30.056Z,1.17
2022-10-22T02:48:56.771Z,1.08
2022-10-22T02:51:23.601Z,1.48
2022-10-22T02:53:50.382Z,1.17
2022-10-22T02:56:17.625Z,1.13
2022-10-22T02:58:44.328Z,1.40
2022-10-22T03:01:13.748Z,1.23
2022-10-22T03:03:42.876Z,1.58
2022-10-22T03:06:09.648Z,1.60
2022-10-22T03:08:36.448Z,1.55
2022-10-22T03:11:03.314Z,1.30
2022-10-22T03:13:30.030Z,1.23
2022-10-22T03:15:57.077Z,1.00
2022-10-22T03:18:23.873Z,1.42
2022-10-22T03:20:50.686Z,1.30
2022-10-22T03:23:20.154Z,1.08
2022-10-22T03:25:49.865Z,1.35
2022-10-22T03:28:18.485Z,1.30
2022-10-22T03:30:45.266Z,0.80
2022-10-22T03:33:11.987Z,1.08
2022-10-22T03:35:44.774Z,0.70
2022-10-22T03:38:12.167Z,1.30
2022-10-22T03:40:39.521Z,1.10
2022-10-22T03:43:06.370Z,1.02
2022-10-22T03:45:33.292Z,1.25
2022-10-22T03:48:00.147Z,1.23
2022-10-22T03:50:26.986Z,0.98
2022-10-22T03:52:53.829Z,1.00
2022-10-22T03:55:20.890Z,1.00
2022-10-22T03:57:47.633Z,1.30
2022-10-22T04:00:14.672Z,1.02
2022-10-22T04:02:41.512Z,0.90
2022-10-22T04:05:08.501Z,1.33
2022-10-22T04:07:35.369Z,1.20
2022-10-22T04:10:02.165Z,1.23
2022-10-22T04:12:28.936Z,1.00
2022-10-22T04:14:55.676Z,0.65
2022-10-22T04:17:22.488Z,1.02
2022-10-22T04:19:49.180Z,1.02
2022-10-22T04:22:15.939Z,1.15
2022-10-22T04:24:42.679Z,0.80
2022-10-22T04:27:09.426Z,0.93
2022-10-22T04:29:36.518Z,1.48
2022-10-22T04:32:03.293Z,0.82
2022-10-22T04:34:30.226Z,0.88
2022-10-22T04:36:57.158Z,1.60
2022-10-22T04:39:23.902Z,1.42
2022-10-22T04:41:50.751Z,1.00
2022-10-22T04:44:18.224Z,0.80
2022-10-22T04:46:45.692Z,0.65
2022-10-22T04:49:12.589Z,1.30
2022-10-22T04:51:39.406Z,1.30
2022-10-22T04:54:06.441Z,0.70
2022-10-22T04:56:33.239Z,0.85
2022-10-22T04:59:02.841Z,1.45
2022-10-22T05:01:41.699Z,0.85
2022-10-22T05:04:13.430Z,1.17
2022-10-22T05:06:40.229Z,1.10
2022-10-22T05:09:10.890Z,1.25
2022-10-22T05:11:41.753Z,1.00
2022-10-22T05:14:10.242Z,1.63
2022-10-22T05:16:38.606Z,1.23
2022-10-22T05:19:06.508Z,0.82
2022-10-22T05:21:33.718Z,1.20
2022-10-22T05:24:00.896Z,0.88
2022-10-22T05:26:28.978Z,0.90
2022-10-22T05:28:55.933Z,0.73
2022-10-22T05:31:22.774Z,1.00
2022-10-22T05:33:49.682Z,1.38
2022-10-22T05:36:19.300Z,0.93
2022-10-22T05:38:46.345Z,0.70
2022-10-22T05:41:18.410Z,0.93
2022-10-22T05:43:45.208Z,0.90
2022-10-22T05:46:22.210Z,1.00
2022-10-22T05:49:01.364Z,1.30
2022-10-22T05:51:31.445Z,0.93
2022-10-22T05:54:03.632Z,1.20
2022-10-22T05:56:32.285Z,1.02
2022-10-22T05:58:59.660Z,1.00
2022-10-22T06:01:32.219Z,1.42
2022-10-22T06:04:01.409Z,1.27
2022-10-22T06:06:35.661Z,1.00
2022-10-22T06:09:11.274Z,0.60
2022-10-22T06:11:38.325Z,0.90
2022-10-22T06:14:05.292Z,0.73
2022-10-22T06:16:32.442Z,1.10
2022-10-22T06:19:02.199Z,0.82
2022-10-22T06:21:29.766Z,1.00
2022-10-22T06:23:58.133Z,0.90
2022-10-22T06:26:25.078Z,1.85
2022-10-22T06:28:52.184Z,0.82
2022-10-22T06:31:18.980Z,0.88
2022-10-22T06:33:45.767Z,0.77
2022-10-22T06:36:18.302Z,0.98
2022-10-22T06:38:45.310Z,0.80
2022-10-22T06:41:14.293Z,1.33
2022-10-22T06:43:45.414Z,0.77
2022-10-22T06:46:17.421Z,0.88
2022-10-22T06:48:51.586Z,1.17
2022-10-22T06:51:19.235Z,0.90
2022-10-22T06:53:45.945Z,0.82
2022-10-22T06:56:15.271Z,0.80
2022-10-22T06:58:42.630Z,0.77
2022-10-22T07:01:12.571Z,1.00
2022-10-22T07:03:40.480Z,0.73
2022-10-22T07:06:13.342Z,0.93
2022-10-22T07:08:41.385Z,1.73
2022-10-22T07:11:14.010Z,1.15
2022-10-22T07:13:41.196Z,1.02
2022-10-22T07:16:09.329Z,1.10
2022-10-22T07:18:37.402Z,0.95
2022-10-22T07:21:05.492Z,1.05
2022-10-22T07:23:32.518Z,0.95
2022-10-22T07:26:02.722Z,0.93
2022-10-22T07:28:31.052Z,0.70
2022-10-22T07:30:57.842Z,1.08
2022-10-22T07:33:24.596Z,0.70
2022-10-22T07:35:51.319Z,0.80
2022-10-22T07:38:18.112Z,0.63
2022-10-22T07:40:44.832Z,1.10
2022-10-22T07:43:11.559Z,1.45
2022-10-22T07:45:39.194Z,0.63
2022-10-22T07:48:06.522Z,0.75
2022-10-22T07:50:33.387Z,0.98
2022-10-22T07:53:00.261Z,0.85
2022-10-22T07:55:27.148Z,0.75
2022-10-22T07:57:54.146Z,1.20
2022-10-22T08:00:24.472Z,0.70
2022-10-22T08:02:52.532Z,1.40
2022-10-22T08:05:19.882Z,1.27
2022-10-22T08:07:46.675Z,1.15
2022-10-22T08:10:13.976Z,1.58
2022-10-22T08:12:41.308Z,0.95
2022-10-22T08:15:09.090Z,1.60
2022-10-22T08:17:37.290Z,1.20
2022-10-22T08:20:04.317Z,0.98
2022-10-22T08:22:31.092Z,0.90
2022-10-22T08:24:57.804Z,0.82
2022-10-22T08:27:24.559Z,1.20
2022-10-22T08:29:51.278Z,1.00
2022-10-22T08:32:18.051Z,1.40
2022-10-22T08:34:44.855Z,0.63
2022-10-22T08:37:14.482Z,0.70
2022-10-22T08:39:41.610Z,1.17
2022-10-22T08:42:29.756Z,1.58
2022-10-22T08:44:56.424Z,0.93
2022-10-22T08:47:48.225Z,0.98
2022-10-22T08:50:22.919Z,0.82
2022-10-22T08:52:55.354Z,0.98
2022-10-22T08:55:24.993Z,0.90
2022-10-22T08:58:02.022Z,1.00
2022-10-22T09:00:36.930Z,1.15
2022-10-22T09:03:27.085Z,1.10
2022-10-22T09:06:05.613Z,0.93
2022-10-22T09:08:32.684Z,1.02
2022-10-22T09:11:06.803Z,1.00
2022-10-22T09:13:33.600Z,0.80
2022-10-22T09:16:14.319Z,0.80
2022-10-22T09:19:16.421Z,1.27
2022-10-22T09:22:08.678Z,1.27
2022-10-22T09:24:46.174Z,1.30
2022-10-22T09:27:18.151Z,2.08
2022-10-22T09:29:47.268Z,1.10
2022-10-22T09:32:15.994Z,0.90
2022-10-22T09:34:45.487Z,0.82
2022-10-22T09:37:12.560Z,1.30
2022-10-22T09:39:41.885Z,1.23
2022-10-22T09:42:10.303Z,0.85
2022-10-22T09:44:38.976Z,0.75
2022-10-22T09:47:08.046Z,1.33
2022-10-22T09:49:36.614Z,0.82
2022-10-22T09:52:03.550Z,1.25
2022-10-22T09:54:33.351Z,0.90
2022-10-22T09:57:17.757Z,1.27
2022-10-22T09:59:47.500Z,1.15
2022-10-22T10:02:26.813Z,1.10
2022-10-22T10:05:05.000Z,1.23
2022-10-22T10:07:34.400Z,1.25
2022-10-22T10:10:01.378Z,0.88
2022-10-22T10:15:29.870Z,1.20
2022-10-22T10:18:18.277Z,0.90
2022-10-22T10:20:50.673Z,1.08
2022-10-22T10:23:36.540Z,1.00
2022-10-22T10:26:13.297Z,1.17
2022-10-22T10:28:55.941Z,1.48
2022-10-22T10:31:42.850Z,1.17
2022-10-22T10:34:53.164Z,1.00
2022-10-22T10:37:30.005Z,0.77
2022-10-22T10:40:21.233Z,0.88
2022-10-22T10:43:11.996Z,0.80
2022-10-22T10:46:01.168Z,0.80
2022-10-22T10:48:35.291Z,0.88
2022-10-22T10:51:25.978Z,0.70
2022-10-22T10:54:16.704Z,0.80
2022-10-22T10:56:58.577Z,0.88
2022-10-22T10:59:58.797Z,1.27
2022-10-22T11:02:47.627Z,1.08
2022-10-22T11:05:41.376Z,1.00
2022-10-22T11:08:46.091Z,0.77
2022-10-22T11:11:21.638Z,0.90
2022-10-22T11:14:03.325Z,0.88
2022-10-22T11:16:45.213Z,0.60
2022-10-22T11:19:50.321Z,0.90
2022-10-22T11:22:26.774Z,0.73
2022-10-22T11:25:05.239Z,0.85
2022-10-22T11:27:47.774Z,0.90
2022-10-22T11:30:22.512Z,0.80
2022-10-22T11:32:55.122Z,0.55
2022-10-22T11:35:28.859Z,1.92
2022-10-22T11:37:57.240Z,1.00
2022-10-22T11:40:37.333Z,0.60
2022-10-22T11:43:06.574Z,0.82
2022-10-22T11:45:42.901Z,1.15
2022-10-22T11:48:17.342Z,0.90
2022-10-22T11:50:54.486Z,0.73
2022-10-22T11:53:34.264Z,0.68
2022-10-22T11:56:07.177Z,0.55
2022-10-22T11:58:44.554Z,0.82
2022-10-22T12:01:11.367Z,0.68
2022-10-22T12:03:41.123Z,0.80
2022-10-22T12:06:15.894Z,0.70
2022-10-22T12:08:56.798Z,0.65
2022-10-22T12:11:51.052Z,0.75
2022-10-22T12:14:27.078Z,0.68
2022-10-22T12:17:08.606Z,0.52
2022-10-22T12:19:40.213Z,0.50
2022-10-22T12:22:07.177Z,0.70
2022-10-22T12:24:44.773Z,0.40
2022-10-22T12:27:36.044Z,0.50
2022-10-22T12:30:24.834Z,0.38
2022-10-22T12:32:54.570Z,0.82
2022-10-22T12:35:26.869Z,0.50
2022-10-22T12:38:03.526Z,0.60
2022-10-22T12:40:36.020Z,0.50
2022-10-22T12:43:11.588Z,0.40
2022-10-22T12:45:40.228Z,0.60
2022-10-22T12:48:19.115Z,0.50
2022-10-22T12:50:51.442Z,0.60
2022-10-22T12:53:35.275Z,0.40
2022-10-22T12:56:06.486Z,0.45
2022-10-22T13:01:13.314Z,0.38
2022-10-22T13:03:52.571Z,0.50
2022-10-22T13:06:19.453Z,0.50
2022-10-22T13:08:55.912Z,0.75
2022-10-22T13:11:31.698Z,0.55
2022-10-22T13:14:18.679Z,0.50
2022-10-22T13:17:12.147Z,0.60
2022-10-22T13:19:48.072Z,0.50
2022-10-22T13:22:28.565Z,0.90
2022-10-22T13:27:28.271Z,0.70
2022-10-22T13:29:57.490Z,0.85
2022-10-22T13:32:34.893Z,0.55
2022-10-22T13:35:03.613Z,0.73
2022-10-22T13:37:32.617Z,0.50
2022-10-22T13:39:59.631Z,0.65
2022-10-22T13:42:26.723Z,0.50
2022-10-22T13:44:53.637Z,0.68
2022-10-22T13:47:29.439Z,1.88
2022-10-22T13:50:03.468Z,0.75
2022-10-22T13:52:37.557Z,0.80
2022-10-22T13:55:20.771Z,0.77
2022-10-22T13:57:48.399Z,0.70
2022-10-22T14:00:20.781Z,0.75
2022-10-22T14:02:50.735Z,1.00
2022-10-22T14:05:18.647Z,0.68
2022-10-22T14:07:46.025Z,0.82
2022-10-22T14:10:17.670Z,0.93
2022-10-22T14:12:47.285Z,1.65
2022-10-22T14:15:19.399Z,1.27
2022-10-22T14:17:55.423Z,0.75
2022-10-22T14:20:24.857Z,0.77
2022-10-22T14:22:52.206Z,0.73
2022-10-22T14:25:24.372Z,0.70
2022-10-22T14:27:52.093Z,0.85
2022-10-22T14:30:25.600Z,0.70
2022-10-22T14:32:53.208Z,0.60
2022-10-22T14:35:22.692Z,0.57
2022-10-22T14:37:50.338Z,0.80
2022-10-22T14:40:20.154Z,0.82
2022-10-22T14:42:49.164Z,0.95
2022-10-22T14:45:25.054Z,0.90
2022-10-22T14:47:56.253Z,0.90
2022-10-22T14:52:52.138Z,0.50
2022-10-22T14:55:23.159Z,1.13
2022-10-22T14:57:50.159Z,0.80
2022-10-22T15:00:18.456Z,1.15
2022-10-22T15:02:46.643Z,1.05
2022-10-22T15:05:14.289Z,1.30
2022-10-22T15:07:42.193Z,0.82
2022-10-22T15:10:10.380Z,1.80
2022-10-22T15:12:40.465Z,0.80
2022-10-22T15:15:08.276Z,0.90
2022-10-22T15:17:35.653Z,0.90
2022-10-22T15:20:04.630Z,0.80
2022-10-22T15:22:35.560Z,1.10
2022-10-22T15:25:08.229Z,0.82
2022-10-22T15:27:36.017Z,1.20
2022-10-22T15:32:30.046Z,0.98
2022-10-22T15:34:56.859Z,1.05
2022-10-22T15:37:24.002Z,1.00
2022-10-22T15:39:51.132Z,0.85
2022-10-22T15:42:19.236Z,1.02
2022-10-22T15:44:46.468Z,0.85
2022-10-22T15:47:13.379Z,1.05
2022-10-22T15:49:41.928Z,1.00
2022-10-22T15:52:10.013Z,1.30
2022-10-22T15:54:37.141Z,1.15
2022-10-22T15:57:08.562Z,1.30
2022-10-22T16:02:04.444Z,1.58
2022-10-22T16:04:31.304Z,1.00
2022-10-22T16:06:58.250Z,1.02
2022-10-22T16:09:27.457Z,1.23
2022-10-22T16:11:55.173Z,0.93
2022-10-22T16:14:24.269Z,1.38
2022-10-22T16:16:53.344Z,0.90
2022-10-22T16:19:22.410Z,1.20
2022-10-22T16:21:54.264Z,1.52
2022-10-22T16:24:22.485Z,1.17
2022-10-22T16:26:49.582Z,1.00
2022-10-22T16:29:16.848Z,1.15
2022-10-22T16:31:46.658Z,1.08
2022-10-22T16:34:13.645Z,1.08
2022-10-22T16:36:42.017Z,1.33
2022-10-22T16:39:09.159Z,1.08
2022-10-22T16:41:36.560Z,1.15
2022-10-22T16:44:06.266Z,1.25
2022-10-22T16:46:33.830Z,1.42
2022-10-22T16:49:00.871Z,1.38
2022-10-22T16:51:29.111Z,1.77
2022-10-22T16:53:57.419Z,1.38
2022-10-22T16:56:25.849Z,1.25
2022-10-22T16:58:55.389Z,1.90
2022-10-22T17:01:26.459Z,1.40
2022-10-22T17:03:56.921Z,0.90
2022-10-22T17:06:24.904Z,1.20
2022-10-22T17:08:51.920Z,1.30
2022-10-22T17:11:21.240Z,1.25
2022-10-22T17:13:49.568Z,1.17
2022-10-22T17:16:18.980Z,1.27
2022-10-22T17:21:14.399Z,1.00
2022-10-22T17:23:42.819Z,1.00
2022-10-22T17:26:15.315Z,1.05
2022-10-22T17:28:42.118Z,1.13
2022-10-22T17:31:15.421Z,1.25
2022-10-22T17:33:42.633Z,0.90
2022-10-22T17:36:12.947Z,1.23
2022-10-22T17:38:42.150Z,0.88
2022-10-22T17:41:14.545Z,1.00
2022-10-22T17:43:41.704Z,0.70
2022-10-22T17:46:14.372Z,1.10
2022-10-22T17:48:41.152Z,0.70
2022-10-22T17:51:09.215Z,0.82
2022-10-22T17:53:38.771Z,0.90
2022-10-22T17:56:10.314Z,1.30
2022-10-22T17:58:38.566Z,0.80
2022-10-22T18:01:06.638Z,0.88
2022-10-22T18:03:34.478Z,0.85
2022-10-22T18:06:08.841Z,0.98
2022-10-22T18:08:36.124Z,1.10
2022-10-22T18:11:11.538Z,1.05
2022-10-22T18:13:38.850Z,0.60
2022-10-22T18:16:06.094Z,1.52
2022-10-22T18:18:34.918Z,0.77
2022-10-22T18:21:02.558Z,0.77
2022-10-22T18:23:29.359Z,0.80
2022-10-22T18:25:56.177Z,0.90
2022-10-22T18:28:23.019Z,0.60
2022-10-22T18:30:49.820Z,1.15
2022-10-22T18:33:19.027Z,0.90
2022-10-22T18:35:48.667Z,0.77
2022-10-22T18:38:15.544Z,0.82
2022-10-22T18:40:46.985Z,1.17
2022-10-22T18:43:15.075Z,1.27
2022-10-22T18:45:45.823Z,4.30
2022-10-22T18:48:18.905Z,1.38
2022-10-22T18:50:47.349Z,1.20
2022-10-22T18:53:16.169Z,1.30
2022-10-22T18:55:43.331Z,0.90
2022-10-22T18:58:10.233Z,1.00
2022-10-22T19:00:39.500Z,1.08
2022-10-22T19:03:06.861Z,1.10
2022-10-22T19:05:34.385Z,1.00
2022-10-22T19:08:01.182Z,0.98
2022-10-22T19:10:28.226Z,1.40
2022-10-22T19:12:55.110Z,1.70
2022-10-22T19:15:21.949Z,1.13
2022-10-22T19:17:48.864Z,1.25
2022-10-22T19:20:15.608Z,0.93
2022-10-22T19:22:42.478Z,1.63
2022-10-22T19:25:11.970Z,1.70
2022-10-22T19:27:40.914Z,2.78
2022-10-22T19:30:08.449Z,2.55
2022-10-22T19:32:35.566Z,3.20
2022-10-22T19:35:02.641Z,2.78
2022-10-22T19:37:29.442Z,2.30
2022-10-22T19:39:56.317Z,1.63
2022-10-22T19:42:23.043Z,1.80
2022-10-22T19:44:49.948Z,1.90
2022-10-22T19:47:17.024Z,2.53
2022-10-22T19:49:43.792Z,2.70
2022-10-22T19:52:10.632Z,3.05
2022-10-22T19:54:40.952Z,3.13
2022-10-22T19:57:08.834Z,3.10
2022-10-22T19:59:35.864Z,3.33
2022-10-22T20:02:02.739Z,5.00
2022-10-22T20:04:30.186Z,3.17
2022-10-22T20:06:57.275Z,4.15
2022-10-22T20:09:24.287Z,5.15
2022-10-22T20:11:51.088Z,4.75
2022-10-22T20:14:17.986Z,4.72
2022-10-22T20:16:45.333Z,4.38
2022-10-22T20:19:16.267Z,4.80
2022-10-22T20:21:43.895Z,4.68
2022-10-22T20:24:11.443Z,4.35
2022-10-22T20:26:38.676Z,4.78
2022-10-22T20:29:05.508Z,5.00
2022-10-22T20:31:33.222Z,5.22
2022-10-22T20:34:01.495Z,5.07
2022-10-22T20:36:29.909Z,5.18
2022-10-22T20:39:07.198Z,6.30
2022-10-22T20:41:35.188Z,6.00
2022-10-22T20:44:02.010Z,6.30
2022-10-22T20:46:31.097Z,7.10
2022-10-22T20:49:17.747Z,7.72
2022-10-22T20:51:44.761Z,9.93
2022-10-22T20:54:12.085Z,5.45
2022-10-22T20:56:40.859Z,6.68
2022-10-22T20:59:10.871Z,8.70
2022-10-22T21:01:45.044Z,8.77
2022-10-22T21:04:12.009Z,11.40
2022-10-22T21:06:40.401Z,11.88
2022-10-22T21:09:09.082Z,11.15
2022-10-22T21:11:37.318Z,12.90
2022-10-22T21:14:06.030Z,12.50
2022-10-22T21:16:33.724Z,11.55
2022-10-22T21:19:00.816Z,10.63
2022-10-22T21:21:28.029Z,11.20
2022-10-22T21:23:54.894Z,9.27
2022-10-22T21:26:21.896Z,9.77
2022-10-22T21:28:48.812Z,10.70
2022-10-22T21:31:22.097Z,11.45
2022-10-22T21:33:50.385Z,10.80
2022-10-22T21:36:22.387Z,9.70
2022-10-22T21:38:53.812Z,10.95
2022-10-22T21:41:23.008Z,11.48
2022-10-22T21:43:50.818Z,10.95
2022-10-22T21:46:20.223Z,12.02
2022-10-22T21:48:47.656Z,11.30
2022-10-22T21:51:17.073Z,12.35
2022-10-22T21:53:44.370Z,16.55
2022-10-22T21:56:20.452Z,17.35
2022-10-22T21:58:48.343Z,12.85
2022-10-22T22:01:16.544Z,12.65
2022-10-22T22:03:45.796Z,11.63
2022-10-22T22:06:13.077Z,10.68
2022-10-22T22:08:40.150Z,12.75
2022-10-22T22:11:18.554Z,11.60
2022-10-22T22:13:45.549Z,7.82
2022-10-22T22:16:16.081Z,7.40
2022-10-22T22:18:42.969Z,8.63
2022-10-22T22:21:13.052Z,7.22
2022-10-22T22:23:42.327Z,6.93
2022-10-22T22:26:09.626Z,7.35
2022-10-22T22:28:37.248Z,7.78
2022-10-22T22:31:22.640Z,8.55
2022-10-22T22:33:49.615Z,8.10
2022-10-22T22:36:16.473Z,9.23
2022-10-22T22:38:43.363Z,12.45
2022-10-22T22:41:10.225Z,14.18
2022-10-22T22:43:38.591Z,13.45
2022-10-22T22:46:12.637Z,13.48
2022-10-22T22:48:40.274Z,10.25
2022-10-22T22:51:07.908Z,11.38
2022-10-22T22:53:35.828Z,12.30
2022-10-22T22:56:14.823Z,11.00
2022-10-22T22:58:43.467Z,11.50
2022-10-22T23:01:23.859Z,10.95
2022-10-22T23:04:10.853Z,11.18
2022-10-22T23:06:38.590Z,14.05
2022-10-22T23:09:07.449Z,10.20
2022-10-22T23:11:34.705Z,9.13
2022-10-22T23:14:04.255Z,5.53
2022-10-22T23:16:33.340Z,6.20
2022-10-22T23:19:00.839Z,5.88
2022-10-22T23:21:37.493Z,6.97
2022-10-22T23:24:07.831Z,5.28
2022-10-22T23:26:41.669Z,5.60
2022-10-22T23:29:18.456Z,5.95
2022-10-22T23:31:46.752Z,5.30
2022-10-22T23:34:17.242Z,4.97
2022-10-22T23:36:44.453Z,5.03
2022-10-22T23:39:17.131Z,4.43
2022-10-22T23:41:44.165Z,3.88
2022-10-22T23:44:11.406Z,4.10
2022-10-22T23:46:39.156Z,3.90
2022-10-22T23:49:07.422Z,3.88
2022-10-22T23:51:34.337Z,3.70
2022-10-22T23:54:06.253Z,2.50
2022-10-22T23:56:33.875Z,2.33
2022-10-22T23:59:00.835Z,1.75
